Dorothy Ann — WDE8761 — position and weather

sailwx.info

Track history (hours):
 
Tides and Currents Weather Stations Pressure Air Temp Water Temp Dewpoint Dewpoint Depression Visibility Wind Speed Wind Dir Waves Ship Positions

Dorothy Ann

More information available from US FCC via Universal Licensing System and Coast Guard Vessel Documentation Center.

Last reported at 2014-Jul-22 13:22 UTC. Time now 2014-Jul-26 11:13 UTC.
Position N 45°45' W 083°32'.

Length 215 m; draft 5.1 m.

Type: Cargo ship. MMSI: 367409260.

Date/timePositionNaut miles runAvg speedWind from/ knotsBaromVisibWave heightAir tempDewpointWater temp
2014-Jul-22 13:22N 45°45' W 083°32'28 9.9
2014-Jul-22 10:33N 45°42' W 084°11'10 9.8
2014-Jul-22 09:33N 45°42' W 084°25'10 9.7
2014-Jul-22 08:33N 45°46' W 084°37'9 9.4
2014-Jul-22 07:33N 45°49' W 084°50'10 9.7
2014-Jul-22 06:34N 45°50' W 085°04'8 8.0
2014-Jul-22 05:33N 45°44' W 085°11'10 9.6
2014-Jul-22 04:34N 45°36' W 085°20'10 9.6
2014-Jul-22 03:33N 45°28' W 085°28'10 9.7
2014-Jul-22 02:33N 45°20' W 085°36'14 9.8
2014-Jul-22 01:06N 45°09' W 085°48'36 1.1
2014-Jul-20 17:03N 44°46' W 086°28'7 8.6
2014-Jul-20 16:15N 44°53' W 086°25'6 8.6
2014-Jul-20 15:34N 44°59' W 086°22'9 8.7
2014-Jul-20 14:33N 45°07' W 086°19'9 8.6
2014-Jul-20 13:33N 45°15' W 086°15'8 8.3
2014-Jul-20 12:34N 45°23' W 086°12'8 8.2
2014-Jul-20 11:33N 45°31' W 086°09'8 8.5
2014-Jul-20 10:33N 45°39' W 086°05'8 8.1
2014-Jul-20 09:33N 45°44' W 085°56'8 8.5
2014-Jul-20 08:34N 45°49' W 085°46'9 8.6
2014-Jul-20 07:34N 45°53' W 085°35'9 8.7
2014-Jul-20 06:34N 45°53' W 085°23'9 8.9
2014-Jul-20 05:33N 45°52' W 085°10'9 9.0
2014-Jul-20 04:34N 45°51' W 084°57'9 8.9
2014-Jul-20 03:34N 45°49' W 084°45'9 8.9
2014-Jul-20 02:34N 45°45' W 084°33'9 8.9
2014-Jul-20 01:34N 45°41' W 084°22'18 9.0
2014-Jul-19 23:33N 45°35' W 083°58'  
Track history (hours):
 
Tides and Currents Weather Stations Pressure Air Temp Water Temp Dewpoint Dewpoint Depression Visibility Wind Speed Wind Dir Waves Ship Positions

Dorothy Ann

More information available from US FCC via Universal Licensing System and Coast Guard Vessel Documentation Center.

Last reported at 2014-Jul-22 13:22 UTC. Time now 2014-Jul-26 11:13 UTC.
Position N 45°45' W 083°32'.

Length 215 m; draft 5.1 m.

Type: Cargo ship. MMSI: 367409260.

Date/timePositionNaut miles runAvg speedWind from/ knotsBaromVisibWave heightAir tempDewpointWater temp
2014-Jul-22 13:22N 45°45' W 083°32'28 9.9
2014-Jul-22 10:33N 45°42' W 084°11'10 9.8
2014-Jul-22 09:33N 45°42' W 084°25'10 9.7
2014-Jul-22 08:33N 45°46' W 084°37'9 9.4
2014-Jul-22 07:33N 45°49' W 084°50'10 9.7
2014-Jul-22 06:34N 45°50' W 085°04'8 8.0
2014-Jul-22 05:33N 45°44' W 085°11'10 9.6
2014-Jul-22 04:34N 45°36' W 085°20'10 9.6
2014-Jul-22 03:33N 45°28' W 085°28'10 9.7
2014-Jul-22 02:33N 45°20' W 085°36'14 9.8
2014-Jul-22 01:06N 45°09' W 085°48'36 1.1
2014-Jul-20 17:03N 44°46' W 086°28'7 8.6
2014-Jul-20 16:15N 44°53' W 086°25'6 8.6
2014-Jul-20 15:34N 44°59' W 086°22'9 8.7
2014-Jul-20 14:33N 45°07' W 086°19'9 8.6
2014-Jul-20 13:33N 45°15' W 086°15'8 8.3
2014-Jul-20 12:34N 45°23' W 086°12'8 8.2
2014-Jul-20 11:33N 45°31' W 086°09'8 8.5
2014-Jul-20 10:33N 45°39' W 086°05'8 8.1
2014-Jul-20 09:33N 45°44' W 085°56'8 8.5
2014-Jul-20 08:34N 45°49' W 085°46'9 8.6
2014-Jul-20 07:34N 45°53' W 085°35'9 8.7
2014-Jul-20 06:34N 45°53' W 085°23'9 8.9
2014-Jul-20 05:33N 45°52' W 085°10'9 9.0
2014-Jul-20 04:34N 45°51' W 084°57'9 8.9
2014-Jul-20 03:34N 45°49' W 084°45'9 8.9
2014-Jul-20 02:34N 45°45' W 084°33'9 8.9
2014-Jul-20 01:34N 45°41' W 084°22'18 9.0
2014-Jul-19 23:33N 45°35' W 083°58'  

Dump ship's entire track history